createdAt,value
2018-04-06T00:02:00.000Z,10.2
2018-04-06T00:07:00.000Z,10.2
2018-04-06T00:12:00.000Z,10.2
2018-04-06T00:17:00.000Z,10.1
2018-04-06T00:22:00.000Z,10.1
2018-04-06T00:27:00.000Z,9.9
2018-04-06T00:32:00.000Z,9.8
2018-04-06T00:37:00.000Z,9.7
2018-04-06T00:42:00.000Z,9.6
2018-04-06T00:47:00.000Z,9.6
2018-04-06T00:52:00.000Z,9.7
2018-04-06T00:57:00.000Z,9.7
2018-04-06T01:02:00.000Z,9.8
2018-04-06T01:07:00.000Z,9.8
2018-04-06T01:12:00.000Z,9.8
2018-04-06T01:17:00.000Z,9.6
2018-04-06T01:22:00.000Z,9.6
2018-04-06T01:27:00.000Z,9.5
2018-04-06T01:32:00.000Z,9.5
2018-04-06T01:37:00.000Z,9.4
2018-04-06T01:42:00.000Z,9.4
2018-04-06T01:47:00.000Z,9.4
2018-04-06T01:52:00.000Z,9.4
2018-04-06T01:57:00.000Z,9.3
2018-04-06T02:02:00.000Z,9.3
2018-04-06T02:07:00.000Z,9.3
2018-04-06T02:12:00.000Z,9.3
2018-04-06T02:17:00.000Z,9.3
2018-04-06T02:22:00.000Z,9.3
2018-04-06T02:27:00.000Z,9.2
2018-04-06T02:32:00.000Z,9.2
2018-04-06T02:37:00.000Z,9.1
2018-04-06T02:42:00.000Z,9.0
2018-04-06T02:47:00.000Z,9.0
2018-04-06T02:52:00.000Z,9.0
2018-04-06T02:57:00.000Z,9.0
2018-04-06T03:02:00.000Z,8.9
2018-04-06T03:07:00.000Z,8.9
2018-04-06T03:12:00.000Z,8.9
2018-04-06T03:17:00.000Z,8.8
2018-04-06T03:22:00.000Z,8.7
2018-04-06T03:27:00.000Z,8.7
2018-04-06T03:32:00.000Z,8.6
2018-04-06T03:37:00.000Z,8.6
2018-04-06T03:42:00.000Z,8.6
2018-04-06T03:47:00.000Z,8.7
2018-04-06T03:52:00.000Z,8.6
2018-04-06T03:57:00.000Z,8.5
2018-04-06T04:02:00.000Z,8.5
2018-04-06T04:07:00.000Z,8.5
2018-04-06T04:12:00.000Z,8.5
2018-04-06T04:17:00.000Z,8.6
2018-04-06T04:22:00.000Z,8.6
2018-04-06T04:27:00.000Z,8.5
2018-04-06T04:32:00.000Z,8.4
2018-04-06T04:37:00.000Z,8.5
2018-04-06T04:42:00.000Z,8.5
2018-04-06T04:47:00.000Z,8.5
2018-04-06T04:52:00.000Z,8.5
2018-04-06T04:58:00.000Z,8.6
2018-04-06T05:03:00.000Z,8.6
2018-04-06T05:08:00.000Z,8.7
2018-04-06T05:13:00.000Z,8.8
2018-04-06T05:18:00.000Z,8.9
2018-04-06T05:23:00.000Z,9.0
2018-04-06T05:28:00.000Z,8.9
2018-04-06T05:33:00.000Z,8.8
2018-04-06T05:38:00.000Z,8.8
2018-04-06T05:43:00.000Z,9.1
2018-04-06T05:48:00.000Z,9.1
2018-04-06T05:53:00.000Z,9.0
2018-04-06T05:58:00.000Z,9.1
2018-04-06T06:03:00.000Z,9.3
2018-04-06T06:08:00.000Z,9.4
2018-04-06T06:13:00.000Z,9.4
2018-04-06T06:18:00.000Z,9.3
2018-04-06T06:23:00.000Z,9.5
2018-04-06T06:28:00.000Z,9.5
2018-04-06T06:33:00.000Z,9.6
2018-04-06T06:38:00.000Z,9.5
2018-04-06T06:43:00.000Z,9.3
2018-04-06T06:48:00.000Z,9.4
2018-04-06T06:53:00.000Z,9.4
2018-04-06T06:58:00.000Z,9.3
2018-04-06T07:03:00.000Z,9.3
2018-04-06T07:08:00.000Z,9.2
2018-04-06T07:13:00.000Z,9.3
2018-04-06T07:18:00.000Z,9.5
2018-04-06T07:23:00.000Z,9.7
2018-04-06T07:28:00.000Z,9.9
2018-04-06T07:33:00.000Z,10.0
2018-04-06T07:38:00.000Z,10.0
2018-04-06T07:43:00.000Z,9.9
2018-04-06T07:48:00.000Z,9.7
2018-04-06T07:53:00.000Z,9.9
2018-04-06T07:58:00.000Z,10.0
2018-04-06T08:03:00.000Z,10.2
2018-04-06T08:08:00.000Z,10.2
2018-04-06T08:13:00.000Z,10.3
2018-04-06T08:18:00.000Z,10.3
2018-04-06T08:23:00.000Z,10.2
2018-04-06T08:28:00.000Z,10.4
2018-04-06T08:33:00.000Z,10.6
2018-04-06T08:38:00.000Z,11.3
2018-04-06T08:43:00.000Z,11.6
2018-04-06T08:48:00.000Z,12.3
2018-04-06T08:53:00.000Z,12.7
2018-04-06T08:58:00.000Z,12.7
2018-04-06T09:03:00.000Z,12.9
2018-04-06T09:08:00.000Z,13.5
2018-04-06T09:13:00.000Z,13.3
2018-04-06T09:18:00.000Z,13.2
2018-04-06T09:23:00.000Z,13.9
2018-04-06T09:28:00.000Z,14.2
2018-04-06T09:33:00.000Z,13.6
2018-04-06T09:38:00.000Z,13.5
2018-04-06T09:43:00.000Z,13.2
2018-04-06T09:48:00.000Z,13.0
2018-04-06T09:53:00.000Z,13.6
2018-04-06T09:58:00.000Z,13.0
2018-04-06T10:03:00.000Z,13.2
2018-04-06T10:08:00.000Z,13.7
2018-04-06T10:13:00.000Z,13.7
2018-04-06T10:18:00.000Z,13.2
2018-04-06T10:23:00.000Z,12.7
2018-04-06T10:28:00.000Z,12.9
2018-04-06T10:33:00.000Z,12.8
2018-04-06T10:38:00.000Z,12.9
2018-04-06T10:43:00.000Z,12.9
2018-04-06T10:48:00.000Z,12.7
2018-04-06T10:53:00.000Z,12.6
2018-04-06T10:58:00.000Z,12.5
2018-04-06T11:04:00.000Z,12.8
2018-04-06T11:09:00.000Z,13.5
2018-04-06T11:14:00.000Z,14.2
2018-04-06T11:19:00.000Z,13.7
2018-04-06T11:24:00.000Z,13.3
2018-04-06T11:29:00.000Z,13.1
2018-04-06T11:34:00.000Z,13.2
2018-04-06T11:39:00.000Z,13.1
2018-04-06T11:44:00.000Z,12.9
2018-04-06T11:49:00.000Z,12.8
2018-04-06T11:54:00.000Z,12.9
2018-04-06T11:59:00.000Z,13.2
2018-04-06T12:04:00.000Z,13.3
2018-04-06T12:09:00.000Z,13.8
2018-04-06T12:14:00.000Z,13.9
2018-04-06T12:19:00.000Z,14.1
2018-04-06T12:24:00.000Z,14.0
2018-04-06T12:29:00.000Z,14.4
2018-04-06T12:34:00.000Z,14.8
2018-04-06T12:39:00.000Z,14.4
2018-04-06T12:44:00.000Z,14.0
2018-04-06T12:49:00.000Z,14.4
2018-04-06T12:54:00.000Z,14.6
2018-04-06T12:59:00.000Z,14.8
2018-04-06T13:04:00.000Z,15.5
2018-04-06T13:09:00.000Z,15.6
2018-04-06T13:14:00.000Z,15.6
2018-04-06T13:19:00.000Z,15.7
2018-04-06T13:24:00.000Z,15.8
2018-04-06T13:29:00.000Z,16.1
2018-04-06T13:34:00.000Z,16.8
2018-04-06T13:39:00.000Z,17.4
2018-04-06T13:44:00.000Z,17.5
2018-04-06T13:49:00.000Z,16.3
2018-04-06T13:54:00.000Z,16.5
2018-04-06T13:59:00.000Z,16.6
2018-04-06T14:04:00.000Z,16.7
2018-04-06T14:09:00.000Z,16.1
2018-04-06T14:14:00.000Z,15.9
2018-04-06T14:19:00.000Z,15.9
2018-04-06T14:24:00.000Z,16.4
2018-04-06T14:29:00.000Z,16.7
2018-04-06T14:34:00.000Z,16.3
2018-04-06T14:39:00.000Z,16.2
2018-04-06T14:44:00.000Z,16.3
2018-04-06T14:49:00.000Z,15.9
2018-04-06T14:54:00.000Z,15.6
2018-04-06T14:59:00.000Z,15.6
2018-04-06T15:04:00.000Z,16.0
2018-04-06T15:09:00.000Z,17.5
2018-04-06T15:14:00.000Z,18.0
2018-04-06T15:19:00.000Z,16.7
2018-04-06T15:24:00.000Z,15.8
2018-04-06T15:29:00.000Z,15.2
2018-04-06T15:34:00.000Z,15.0
2018-04-06T15:39:00.000Z,14.9
2018-04-06T15:44:00.000Z,14.5
2018-04-06T15:49:00.000Z,14.4
2018-04-06T15:54:00.000Z,14.2
2018-04-06T15:59:00.000Z,14.1
2018-04-06T16:04:00.000Z,13.8
2018-04-06T16:09:00.000Z,13.8
2018-04-06T16:14:00.000Z,13.9
2018-04-06T16:19:00.000Z,13.8
2018-04-06T16:24:00.000Z,13.7
2018-04-06T16:29:00.000Z,13.8
2018-04-06T16:34:00.000Z,13.8
2018-04-06T16:39:00.000Z,13.7
2018-04-06T16:44:00.000Z,13.6
2018-04-06T16:49:00.000Z,13.5
2018-04-06T16:54:00.000Z,13.5
2018-04-06T16:59:00.000Z,13.5
2018-04-06T17:04:00.000Z,13.4
2018-04-06T17:10:00.000Z,13.2
2018-04-06T17:15:00.000Z,13.1
2018-04-06T17:20:00.000Z,12.9
2018-04-06T17:25:00.000Z,12.9
2018-04-06T17:30:00.000Z,12.8
2018-04-06T17:35:00.000Z,12.7
2018-04-06T17:40:00.000Z,12.6
2018-04-06T17:45:00.000Z,12.5
2018-04-06T17:50:00.000Z,12.5
2018-04-06T17:55:00.000Z,12.5
2018-04-06T18:00:00.000Z,12.4
2018-04-06T18:05:00.000Z,12.4
2018-04-06T18:10:00.000Z,12.4
2018-04-06T18:15:00.000Z,12.5
2018-04-06T18:20:00.000Z,12.6
2018-04-06T18:25:00.000Z,12.5
2018-04-06T18:30:00.000Z,12.5
2018-04-06T18:35:00.000Z,12.4
2018-04-06T18:40:00.000Z,12.5
2018-04-06T18:45:00.000Z,12.6
2018-04-06T18:50:00.000Z,12.5
2018-04-06T18:55:00.000Z,12.5
2018-04-06T19:00:00.000Z,12.4
2018-04-06T19:05:00.000Z,12.4
2018-04-06T19:10:00.000Z,12.3
2018-04-06T19:15:00.000Z,12.2
2018-04-06T19:20:00.000Z,12.2
2018-04-06T19:25:00.000Z,12.2
2018-04-06T19:30:00.000Z,12.2
2018-04-06T19:35:00.000Z,12.2
2018-04-06T19:40:00.000Z,12.2
2018-04-06T19:45:00.000Z,12.3
2018-04-06T19:50:00.000Z,12.2
2018-04-06T19:55:00.000Z,12.3
2018-04-06T20:00:00.000Z,12.2
2018-04-06T20:05:00.000Z,12.2
2018-04-06T20:10:00.000Z,12.2
2018-04-06T20:15:00.000Z,12.2
2018-04-06T20:20:00.000Z,12.1
2018-04-06T20:25:00.000Z,12.0
2018-04-06T20:30:00.000Z,12.0
2018-04-06T20:35:00.000Z,11.9
2018-04-06T20:40:00.000Z,11.8
2018-04-06T20:45:00.000Z,11.6
2018-04-06T20:50:00.000Z,11.5
2018-04-06T20:55:00.000Z,11.4
2018-04-06T21:00:00.000Z,11.3
2018-04-06T21:05:00.000Z,11.3
2018-04-06T21:10:00.000Z,11.3
2018-04-06T21:15:00.000Z,11.2
2018-04-06T21:20:00.000Z,11.1
2018-04-06T21:25:00.000Z,11.0
2018-04-06T21:30:00.000Z,11.0
2018-04-06T21:35:00.000Z,10.9
2018-04-06T21:40:00.000Z,10.8
2018-04-06T21:45:00.000Z,10.5
2018-04-06T21:50:00.000Z,10.2
2018-04-06T21:55:00.000Z,9.9
2018-04-06T22:00:00.000Z,9.9
2018-04-06T22:05:00.000Z,10.0
2018-04-06T22:10:00.000Z,9.8
2018-04-06T22:15:00.000Z,9.6
2018-04-06T22:20:00.000Z,9.6
2018-04-06T22:25:00.000Z,9.7
2018-04-06T22:30:00.000Z,9.7
2018-04-06T22:35:00.000Z,9.6
2018-04-06T22:40:00.000Z,9.6
2018-04-06T22:45:00.000Z,9.6
2018-04-06T22:50:00.000Z,9.6
2018-04-06T22:55:00.000Z,9.8
2018-04-06T23:00:00.000Z,9.8
2018-04-06T23:05:00.000Z,9.9
2018-04-06T23:11:00.000Z,9.8
2018-04-06T23:16:00.000Z,9.7
2018-04-06T23:21:00.000Z,9.6
2018-04-06T23:26:00.000Z,9.5
2018-04-06T23:31:00.000Z,9.5
2018-04-06T23:36:00.000Z,9.4
2018-04-06T23:41:00.000Z,9.3
2018-04-06T23:46:00.000Z,9.2
2018-04-06T23:51:00.000Z,9.2
2018-04-06T23:56:00.000Z,9.2
